Nullo Mountains, Australia
Current Conditions -  °F | °C
As of 1:00 AM on Saturday 25 Oct 2014 (Local Time) from YMDG Reporting Station
Clear Clear  
Wind Chill: 61°   Ceiling: Unl
Heat Index: 61°   Visibility: NA
Dew Point: 55°   Wind: 2mph
Humidity: 82%   Direction: 330°NNW
Pressure: 30"   Gusts: NA
Location:  32.72°S, 150.23°E
Report Text: YMDG 241400Z AUTO 33002KT //// // NCD 16/13 Q1016
Loading
Personal Weather Stations






























Interactive Weather Map
Tropical Storm Tracking
New forecast layout! Learn more

10-Day Weather Forecast

Advertisements
Track Severe Weather on mobile